sensor_id;sensor_type;location;lat;lon;timestamp;P1;durP1;ratioP1;P2;durP2;ratioP2
65459;SDS011;52058;49.822;6.754;2024-01-30T00:02:09;13.77;;;7.55;;
65459;SDS011;52058;49.822;6.754;2024-01-30T00:04:36;12.50;;;7.80;;
65459;SDS011;52058;49.822;6.754;2024-01-30T00:07:03;12.60;;;8.23;;
65459;SDS011;52058;49.822;6.754;2024-01-30T00:09:30;12.98;;;7.32;;
65459;SDS011;52058;49.822;6.754;2024-01-30T00:11:56;14.10;;;7.97;;
65459;SDS011;52058;49.822;6.754;2024-01-30T00:14:23;15.40;;;8.02;;
65459;SDS011;52058;49.822;6.754;2024-01-30T00:16:50;12.05;;;7.97;;
65459;SDS011;52058;49.822;6.754;2024-01-30T00:19:16;14.00;;;8.55;;
65459;SDS011;52058;49.822;6.754;2024-01-30T00:21:43;14.15;;;8.02;;
65459;SDS011;52058;49.822;6.754;2024-01-30T00:24:10;13.30;;;8.15;;
65459;SDS011;52058;49.822;6.754;2024-01-30T00:26:37;15.45;;;8.38;;
65459;SDS011;52058;49.822;6.754;2024-01-30T00:29:03;13.68;;;8.35;;
65459;SDS011;52058;49.822;6.754;2024-01-30T00:31:29;11.57;;;7.40;;
65459;SDS011;52058;49.822;6.754;2024-01-30T00:33:56;12.48;;;7.72;;
65459;SDS011;52058;49.822;6.754;2024-01-30T00:36:22;12.57;;;7.03;;
65459;SDS011;52058;49.822;6.754;2024-01-30T00:38:49;13.52;;;7.53;;
65459;SDS011;52058;49.822;6.754;2024-01-30T00:41:18;15.25;;;7.80;;
65459;SDS011;52058;49.822;6.754;2024-01-30T00:43:44;12.10;;;7.43;;
65459;SDS011;52058;49.822;6.754;2024-01-30T00:46:11;12.27;;;7.57;;
65459;SDS011;52058;49.822;6.754;2024-01-30T00:48:37;13.27;;;8.50;;
65459;SDS011;52058;49.822;6.754;2024-01-30T00:51:04;11.75;;;7.47;;
65459;SDS011;52058;49.822;6.754;2024-01-30T00:53:30;15.43;;;8.57;;
65459;SDS011;52058;49.822;6.754;2024-01-30T00:55:56;20.08;;;8.10;;
65459;SDS011;52058;49.822;6.754;2024-01-30T00:58:25;15.50;;;8.50;;
65459;SDS011;52058;49.822;6.754;2024-01-30T01:00:51;16.13;;;8.55;;
65459;SDS011;52058;49.822;6.754;2024-01-30T01:03:18;16.30;;;8.10;;
65459;SDS011;52058;49.822;6.754;2024-01-30T01:05:44;13.95;;;8.90;;
65459;SDS011;52058;49.822;6.754;2024-01-30T01:08:11;13.27;;;8.20;;
65459;SDS011;52058;49.822;6.754;2024-01-30T01:10:37;15.70;;;8.90;;
65459;SDS011;52058;49.822;6.754;2024-01-30T01:13:03;15.23;;;8.07;;
65459;SDS011;52058;49.822;6.754;2024-01-30T01:15:30;18.20;;;9.13;;
65459;SDS011;52058;49.822;6.754;2024-01-30T01:17:56;17.63;;;8.13;;
65459;SDS011;52058;49.822;6.754;2024-01-30T01:20:23;16.48;;;8.10;;
65459;SDS011;52058;49.822;6.754;2024-01-30T01:22:49;14.20;;;8.90;;
65459;SDS011;52058;49.822;6.754;2024-01-30T01:25:17;14.88;;;8.30;;
65459;SDS011;52058;49.822;6.754;2024-01-30T01:27:44;15.48;;;8.32;;
65459;SDS011;52058;49.822;6.754;2024-01-30T01:30:16;15.15;;;8.48;;
65459;SDS011;52058;49.822;6.754;2024-01-30T01:32:47;18.40;;;8.63;;
65459;SDS011;52058;49.822;6.754;2024-01-30T01:35:19;17.55;;;8.30;;
65459;SDS011;52058;49.822;6.754;2024-01-30T01:37:46;19.98;;;8.23;;
65459;SDS011;52058;49.822;6.754;2024-01-30T01:40:12;15.60;;;8.45;;
65459;SDS011;52058;49.822;6.754;2024-01-30T01:42:39;15.65;;;8.95;;
65459;SDS011;52058;49.822;6.754;2024-01-30T01:45:05;15.90;;;9.15;;
65459;SDS011;52058;49.822;6.754;2024-01-30T01:47:31;15.50;;;8.63;;
65459;SDS011;52058;49.822;6.754;2024-01-30T01:49:59;16.33;;;8.63;;
65459;SDS011;52058;49.822;6.754;2024-01-30T01:52:25;16.63;;;8.57;;
65459;SDS011;52058;49.822;6.754;2024-01-30T01:54:52;14.68;;;8.30;;
65459;SDS011;52058;49.822;6.754;2024-01-30T01:57:18;14.63;;;8.52;;
65459;SDS011;52058;49.822;6.754;2024-01-30T01:59:45;17.27;;;9.63;;
65459;SDS011;52058;49.822;6.754;2024-01-30T02:02:11;17.25;;;8.48;;
65459;SDS011;52058;49.822;6.754;2024-01-30T02:04:38;17.25;;;8.20;;
65459;SDS011;52058;49.822;6.754;2024-01-30T02:07:06;18.27;;;9.05;;
65459;SDS011;52058;49.822;6.754;2024-01-30T02:09:33;16.58;;;9.65;;
65459;SDS011;52058;49.822;6.754;2024-01-30T02:11:59;15.10;;;8.50;;
65459;SDS011;52058;49.822;6.754;2024-01-30T02:14:26;16.38;;;9.23;;
65459;SDS011;52058;49.822;6.754;2024-01-30T02:16:52;19.23;;;8.80;;
65459;SDS011;52058;49.822;6.754;2024-01-30T02:19:19;13.05;;;7.60;;
65459;SDS011;52058;49.822;6.754;2024-01-30T02:21:47;14.02;;;8.48;;
65459;SDS011;52058;49.822;6.754;2024-01-30T02:24:14;14.18;;;8.50;;
65459;SDS011;52058;49.822;6.754;2024-01-30T02:26:40;14.60;;;8.48;;
65459;SDS011;52058;49.822;6.754;2024-01-30T02:29:06;15.70;;;8.82;;
65459;SDS011;52058;49.822;6.754;2024-01-30T02:31:33;17.42;;;8.80;;
65459;SDS011;52058;49.822;6.754;2024-01-30T02:33:59;16.23;;;8.38;;
65459;SDS011;52058;49.822;6.754;2024-01-30T02:36:25;14.95;;;8.70;;
65459;SDS011;52058;49.822;6.754;2024-01-30T02:38:53;13.77;;;7.95;;
65459;SDS011;52058;49.822;6.754;2024-01-30T02:41:19;14.00;;;8.48;;
65459;SDS011;52058;49.822;6.754;2024-01-30T02:43:46;16.52;;;8.35;;
65459;SDS011;52058;49.822;6.754;2024-01-30T02:46:13;12.95;;;8.18;;
65459;SDS011;52058;49.822;6.754;2024-01-30T02:48:39;14.80;;;8.65;;
65459;SDS011;52058;49.822;6.754;2024-01-30T02:51:05;14.93;;;8.13;;
65459;SDS011;52058;49.822;6.754;2024-01-30T02:53:32;14.13;;;8.63;;
65459;SDS011;52058;49.822;6.754;2024-01-30T02:56:00;12.45;;;7.72;;
65459;SDS011;52058;49.822;6.754;2024-01-30T02:58:27;13.18;;;8.38;;
65459;SDS011;52058;49.822;6.754;2024-01-30T03:00:53;12.45;;;8.20;;
65459;SDS011;52058;49.822;6.754;2024-01-30T03:03:19;12.82;;;8.40;;
65459;SDS011;52058;49.822;6.754;2024-01-30T03:05:46;12.13;;;7.65;;
65459;SDS011;52058;49.822;6.754;2024-01-30T03:08:12;11.20;;;8.25;;
65459;SDS011;52058;49.822;6.754;2024-01-30T03:10:39;12.63;;;8.35;;
65459;SDS011;52058;49.822;6.754;2024-01-30T03:13:06;13.38;;;8.75;;
65459;SDS011;52058;49.822;6.754;2024-01-30T03:15:33;13.10;;;8.68;;
65459;SDS011;52058;49.822;6.754;2024-01-30T03:17:59;13.85;;;9.30;;
65459;SDS011;52058;49.822;6.754;2024-01-30T03:20:25;14.02;;;8.35;;
65459;SDS011;52058;49.822;6.754;2024-01-30T03:22:52;13.05;;;8.55;;
65459;SDS011;52058;49.822;6.754;2024-01-30T03:25:18;15.02;;;8.80;;
65459;SDS011;52058;49.822;6.754;2024-01-30T03:27:44;14.95;;;8.82;;
65459;SDS011;52058;49.822;6.754;2024-01-30T03:30:12;15.23;;;9.40;;
65459;SDS011;52058;49.822;6.754;2024-01-30T03:32:38;13.93;;;8.48;;
65459;SDS011;52058;49.822;6.754;2024-01-30T03:35:05;12.95;;;8.63;;
65459;SDS011;52058;49.822;6.754;2024-01-30T03:37:32;15.98;;;9.57;;
65459;SDS011;52058;49.822;6.754;2024-01-30T03:39:58;13.63;;;8.55;;
65459;SDS011;52058;49.822;6.754;2024-01-30T03:42:24;15.00;;;8.70;;
65459;SDS011;52058;49.822;6.754;2024-01-30T03:44:51;14.52;;;8.77;;
65459;SDS011;52058;49.822;6.754;2024-01-30T03:47:19;13.15;;;8.30;;
65459;SDS011;52058;49.822;6.754;2024-01-30T03:49:46;14.38;;;9.05;;
65459;SDS011;52058;49.822;6.754;2024-01-30T03:52:12;15.90;;;8.93;;
65459;SDS011;52058;49.822;6.754;2024-01-30T03:54:39;15.02;;;9.68;;
65459;SDS011;52058;49.822;6.754;2024-01-30T03:57:05;14.13;;;9.27;;
65459;SDS011;52058;49.822;6.754;2024-01-30T03:59:31;14.73;;;9.35;;
65459;SDS011;52058;49.822;6.754;2024-01-30T04:01:58;18.35;;;10.27;;
65459;SDS011;52058;49.822;6.754;2024-01-30T04:04:26;13.88;;;9.00;;
65459;SDS011;52058;49.822;6.754;2024-01-30T04:06:52;18.70;;;9.88;;
65459;SDS011;52058;49.822;6.754;2024-01-30T04:09:18;13.95;;;8.60;;
65459;SDS011;52058;49.822;6.754;2024-01-30T04:11:45;13.52;;;8.75;;
65459;SDS011;52058;49.822;6.754;2024-01-30T04:14:11;16.02;;;9.05;;
65459;SDS011;52058;49.822;6.754;2024-01-30T04:16:37;15.90;;;9.88;;
65459;SDS011;52058;49.822;6.754;2024-01-30T04:19:04;15.32;;;9.25;;
65459;SDS011;52058;49.822;6.754;2024-01-30T04:21:31;14.95;;;9.40;;
65459;SDS011;52058;49.822;6.754;2024-01-30T04:23:58;16.38;;;9.18;;
65459;SDS011;52058;49.822;6.754;2024-01-30T04:26:24;16.65;;;9.35;;
65459;SDS011;52058;49.822;6.754;2024-01-30T04:28:51;17.98;;;9.82;;
65459;SDS011;52058;49.822;6.754;2024-01-30T04:31:17;17.85;;;10.32;;
65459;SDS011;52058;49.822;6.754;2024-01-30T04:33:43;15.27;;;9.10;;
65459;SDS011;52058;49.822;6.754;2024-01-30T04:36:10;16.00;;;9.35;;
65459;SDS011;52058;49.822;6.754;2024-01-30T04:38:38;17.20;;;10.00;;
65459;SDS011;52058;49.822;6.754;2024-01-30T04:41:04;15.38;;;9.20;;
65459;SDS011;52058;49.822;6.754;2024-01-30T04:43:30;18.35;;;9.63;;
65459;SDS011;52058;49.822;6.754;2024-01-30T04:45:57;15.77;;;9.75;;
65459;SDS011;52058;49.822;6.754;2024-01-30T04:48:23;13.57;;;8.93;;
65459;SDS011;52058;49.822;6.754;2024-01-30T04:50:50;14.25;;;9.07;;
65459;SDS011;52058;49.822;6.754;2024-01-30T04:53:16;15.68;;;9.30;;
65459;SDS011;52058;49.822;6.754;2024-01-30T04:55:44;14.98;;;9.32;;
65459;SDS011;52058;49.822;6.754;2024-01-30T04:58:10;14.88;;;9.38;;
65459;SDS011;52058;49.822;6.754;2024-01-30T05:00:36;16.88;;;9.60;;
65459;SDS011;52058;49.822;6.754;2024-01-30T05:03:03;15.93;;;9.88;;
65459;SDS011;52058;49.822;6.754;2024-01-30T05:05:29;18.25;;;9.55;;
65459;SDS011;52058;49.822;6.754;2024-01-30T05:07:56;12.15;;;8.63;;
65459;SDS011;52058;49.822;6.754;2024-01-30T05:10:22;15.88;;;9.45;;
65459;SDS011;52058;49.822;6.754;2024-01-30T05:12:50;15.02;;;9.15;;
65459;SDS011;52058;49.822;6.754;2024-01-30T05:15:16;15.82;;;9.63;;
65459;SDS011;52058;49.822;6.754;2024-01-30T05:17:42;14.85;;;9.40;;
65459;SDS011;52058;49.822;6.754;2024-01-30T05:20:09;15.20;;;8.65;;
65459;SDS011;52058;49.822;6.754;2024-01-30T05:22:36;16.80;;;9.27;;
65459;SDS011;52058;49.822;6.754;2024-01-30T05:25:03;15.80;;;9.32;;
65459;SDS011;52058;49.822;6.754;2024-01-30T05:27:29;17.15;;;9.50;;
65459;SDS011;52058;49.822;6.754;2024-01-30T05:29:57;15.05;;;9.52;;
65459;SDS011;52058;49.822;6.754;2024-01-30T05:32:23;17.05;;;10.05;;
65459;SDS011;52058;49.822;6.754;2024-01-30T05:34:50;19.63;;;9.77;;
65459;SDS011;52058;49.822;6.754;2024-01-30T05:37:16;17.45;;;10.45;;
65459;SDS011;52058;49.822;6.754;2024-01-30T05:39:43;18.50;;;10.38;;
65459;SDS011;52058;49.822;6.754;2024-01-30T05:42:09;16.75;;;9.77;;
65459;SDS011;52058;49.822;6.754;2024-01-30T05:44:36;17.63;;;9.93;;
65459;SDS011;52058;49.822;6.754;2024-01-30T05:47:04;16.30;;;9.38;;
65459;SDS011;52058;49.822;6.754;2024-01-30T05:49:30;16.30;;;9.38;;
65459;SDS011;52058;49.822;6.754;2024-01-30T05:51:56;14.40;;;8.82;;
65459;SDS011;52058;49.822;6.754;2024-01-30T05:54:23;17.05;;;8.90;;
65459;SDS011;52058;49.822;6.754;2024-01-30T05:56:49;16.05;;;9.07;;
65459;SDS011;52058;49.822;6.754;2024-01-30T05:59:18;13.65;;;8.93;;
65459;SDS011;52058;49.822;6.754;2024-01-30T06:01:45;16.08;;;8.98;;
65459;SDS011;52058;49.822;6.754;2024-01-30T06:04:13;18.40;;;9.75;;
65459;SDS011;52058;49.822;6.754;2024-01-30T06:06:39;16.88;;;9.60;;
65459;SDS011;52058;49.822;6.754;2024-01-30T06:09:06;14.23;;;9.00;;
65459;SDS011;52058;49.822;6.754;2024-01-30T06:11:34;15.18;;;9.27;;
65459;SDS011;52058;49.822;6.754;2024-01-30T06:14:00;16.13;;;9.23;;
65459;SDS011;52058;49.822;6.754;2024-01-30T06:16:27;18.23;;;8.30;;
65459;SDS011;52058;49.822;6.754;2024-01-30T06:18:54;12.95;;;8.88;;
65459;SDS011;52058;49.822;6.754;2024-01-30T06:21:22;15.35;;;8.93;;
65459;SDS011;52058;49.822;6.754;2024-01-30T06:23:48;17.70;;;9.18;;
65459;SDS011;52058;49.822;6.754;2024-01-30T06:26:15;20.63;;;9.50;;
65459;SDS011;52058;49.822;6.754;2024-01-30T06:28:41;15.93;;;9.43;;
65459;SDS011;52058;49.822;6.754;2024-01-30T06:31:07;18.10;;;9.00;;
65459;SDS011;52058;49.822;6.754;2024-01-30T06:33:34;16.52;;;9.63;;
65459;SDS011;52058;49.822;6.754;2024-01-30T06:36:00;18.95;;;9.93;;
65459;SDS011;52058;49.822;6.754;2024-01-30T06:38:28;17.85;;;9.65;;
65459;SDS011;52058;49.822;6.754;2024-01-30T06:40:54;15.70;;;9.85;;
65459;SDS011;52058;49.822;6.754;2024-01-30T06:43:21;19.30;;;10.10;;
65459;SDS011;52058;49.822;6.754;2024-01-30T06:45:48;15.43;;;9.45;;
65459;SDS011;52058;49.822;6.754;2024-01-30T06:48:15;18.63;;;10.43;;
65459;SDS011;52058;49.822;6.754;2024-01-30T06:50:42;18.40;;;10.23;;
65459;SDS011;52058;49.822;6.754;2024-01-30T06:53:08;18.40;;;9.25;;
65459;SDS011;52058;49.822;6.754;2024-01-30T06:55:36;18.67;;;10.35;;
65459;SDS011;52058;49.822;6.754;2024-01-30T06:58:02;17.30;;;9.48;;
65459;SDS011;52058;49.822;6.754;2024-01-30T07:00:28;17.20;;;9.82;;
65459;SDS011;52058;49.822;6.754;2024-01-30T07:02:55;17.17;;;9.60;;
65459;SDS011;52058;49.822;6.754;2024-01-30T07:05:22;20.35;;;11.10;;
65459;SDS011;52058;49.822;6.754;2024-01-30T07:07:48;23.77;;;12.00;;
65459;SDS011;52058;49.822;6.754;2024-01-30T07:10:14;21.30;;;12.02;;
65459;SDS011;52058;49.822;6.754;2024-01-30T07:12:42;19.52;;;10.85;;
65459;SDS011;52058;49.822;6.754;2024-01-30T07:15:09;17.42;;;9.45;;
65459;SDS011;52058;49.822;6.754;2024-01-30T07:17:35;15.50;;;9.38;;
65459;SDS011;52058;49.822;6.754;2024-01-30T07:20:02;19.90;;;9.95;;
65459;SDS011;52058;49.822;6.754;2024-01-30T07:22:29;18.10;;;10.18;;
65459;SDS011;52058;49.822;6.754;2024-01-30T07:24:56;18.60;;;10.82;;
65459;SDS011;52058;49.822;6.754;2024-01-30T07:27:22;16.33;;;9.98;;
65459;SDS011;52058;49.822;6.754;2024-01-30T07:29:50;20.10;;;10.40;;
65459;SDS011;52058;49.822;6.754;2024-01-30T07:32:16;17.98;;;9.88;;
65459;SDS011;52058;49.822;6.754;2024-01-30T07:34:43;34.58;;;18.98;;
65459;SDS011;52058;49.822;6.754;2024-01-30T07:37:10;28.58;;;16.27;;
65459;SDS011;52058;49.822;6.754;2024-01-30T07:39:40;25.75;;;13.52;;
65459;SDS011;52058;49.822;6.754;2024-01-30T07:42:06;25.70;;;13.02;;
65459;SDS011;52058;49.822;6.754;2024-01-30T07:44:33;26.58;;;12.98;;
65459;SDS011;52058;49.822;6.754;2024-01-30T07:47:01;25.60;;;12.40;;
65459;SDS011;52058;49.822;6.754;2024-01-30T07:49:28;21.88;;;11.70;;
65459;SDS011;52058;49.822;6.754;2024-01-30T07:51:54;22.77;;;10.73;;
65459;SDS011;52058;49.822;6.754;2024-01-30T07:54:20;20.00;;;10.15;;
65459;SDS011;52058;49.822;6.754;2024-01-30T07:56:48;16.95;;;9.90;;
65459;SDS011;52058;49.822;6.754;2024-01-30T07:59:14;18.05;;;10.43;;
65459;SDS011;52058;49.822;6.754;2024-01-30T08:01:41;21.02;;;11.05;;
65459;SDS011;52058;49.822;6.754;2024-01-30T08:04:09;21.65;;;11.15;;
65459;SDS011;52058;49.822;6.754;2024-01-30T08:06:35;21.58;;;11.02;;
65459;SDS011;52058;49.822;6.754;2024-01-30T08:09:02;23.25;;;11.18;;
65459;SDS011;52058;49.822;6.754;2024-01-30T08:11:28;18.90;;;10.05;;
65459;SDS011;52058;49.822;6.754;2024-01-30T08:13:55;20.77;;;11.27;;
65459;SDS011;52058;49.822;6.754;2024-01-30T08:16:22;20.98;;;11.25;;
65459;SDS011;52058;49.822;6.754;2024-01-30T08:18:48;19.95;;;11.13;;
65459;SDS011;52058;49.822;6.754;2024-01-30T08:21:16;20.13;;;10.80;;
65459;SDS011;52058;49.822;6.754;2024-01-30T08:23:42;17.75;;;10.02;;
65459;SDS011;52058;49.822;6.754;2024-01-30T08:26:09;17.90;;;9.98;;
65459;SDS011;52058;49.822;6.754;2024-01-30T08:28:35;17.77;;;9.75;;
65459;SDS011;52058;49.822;6.754;2024-01-30T08:31:01;16.63;;;9.52;;
65459;SDS011;52058;49.822;6.754;2024-01-30T08:33:28;15.10;;;8.55;;
65459;SDS011;52058;49.822;6.754;2024-01-30T08:35:54;13.75;;;8.57;;
65459;SDS011;52058;49.822;6.754;2024-01-30T08:38:22;15.77;;;9.38;;
65459;SDS011;52058;49.822;6.754;2024-01-30T08:40:48;11.73;;;8.40;;
65459;SDS011;52058;49.822;6.754;2024-01-30T08:43:15;11.43;;;7.68;;
65459;SDS011;52058;49.822;6.754;2024-01-30T08:45:41;11.95;;;8.18;;
65459;SDS011;52058;49.822;6.754;2024-01-30T08:48:08;10.68;;;7.68;;
65459;SDS011;52058;49.822;6.754;2024-01-30T08:50:34;12.05;;;8.20;;
65459;SDS011;52058;49.822;6.754;2024-01-30T08:53:00;10.05;;;7.10;;
65459;SDS011;52058;49.822;6.754;2024-01-30T08:55:29;9.80;;;6.93;;
65459;SDS011;52058;49.822;6.754;2024-01-30T08:57:55;10.43;;;7.55;;
65459;SDS011;52058;49.822;6.754;2024-01-30T09:00:22;10.98;;;7.57;;
65459;SDS011;52058;49.822;6.754;2024-01-30T09:02:48;9.77;;;7.50;;
65459;SDS011;52058;49.822;6.754;2024-01-30T09:05:14;9.43;;;7.75;;
65459;SDS011;52058;49.822;6.754;2024-01-30T09:07:41;9.35;;;7.32;;
65459;SDS011;52058;49.822;6.754;2024-01-30T09:10:07;11.80;;;7.97;;
65459;SDS011;52058;49.822;6.754;2024-01-30T09:12:35;11.40;;;7.25;;
65459;SDS011;52058;49.822;6.754;2024-01-30T09:15:02;10.13;;;6.95;;
65459;SDS011;52058;49.822;6.754;2024-01-30T09:17:28;10.02;;;7.20;;
65459;SDS011;52058;49.822;6.754;2024-01-30T09:19:55;11.13;;;7.82;;
65459;SDS011;52058;49.822;6.754;2024-01-30T09:22:21;10.98;;;7.40;;
65459;SDS011;52058;49.822;6.754;2024-01-30T09:24:47;10.40;;;7.45;;
65459;SDS011;52058;49.822;6.754;2024-01-30T09:27:14;10.65;;;7.35;;
65459;SDS011;52058;49.822;6.754;2024-01-30T09:29:41;10.23;;;7.15;;
65459;SDS011;52058;49.822;6.754;2024-01-30T09:32:07;10.65;;;7.30;;
65459;SDS011;52058;49.822;6.754;2024-01-30T09:34:34;10.73;;;7.68;;
65459;SDS011;52058;49.822;6.754;2024-01-30T09:37:00;12.23;;;7.43;;
65459;SDS011;52058;49.822;6.754;2024-01-30T09:39:27;11.57;;;7.32;;
65459;SDS011;52058;49.822;6.754;2024-01-30T09:41:55;11.40;;;7.60;;
65459;SDS011;52058;49.822;6.754;2024-01-30T09:44:22;11.07;;;7.72;;
65459;SDS011;52058;49.822;6.754;2024-01-30T09:46:50;10.15;;;7.13;;
65459;SDS011;52058;49.822;6.754;2024-01-30T09:49:17;15.10;;;10.35;;
65459;SDS011;52058;49.822;6.754;2024-01-30T09:51:44;11.93;;;8.45;;
65459;SDS011;52058;49.822;6.754;2024-01-30T09:54:11;11.27;;;7.50;;
65459;SDS011;52058;49.822;6.754;2024-01-30T09:56:39;10.65;;;8.57;;
65459;SDS011;52058;49.822;6.754;2024-01-30T09:59:06;12.13;;;8.25;;
65459;SDS011;52058;49.822;6.754;2024-01-30T10:01:33;11.02;;;8.27;;
65459;SDS011;52058;49.822;6.754;2024-01-30T10:04:01;11.25;;;8.48;;
65459;SDS011;52058;49.822;6.754;2024-01-30T10:06:28;26.80;;;19.35;;
65459;SDS011;52058;49.822;6.754;2024-01-30T10:08:55;12.65;;;9.60;;
65459;SDS011;52058;49.822;6.754;2024-01-30T10:11:21;13.10;;;9.52;;
65459;SDS011;52058;49.822;6.754;2024-01-30T10:13:48;13.95;;;9.70;;
65459;SDS011;52058;49.822;6.754;2024-01-30T10:16:15;13.98;;;10.15;;
65459;SDS011;52058;49.822;6.754;2024-01-30T10:18:42;15.95;;;10.80;;
65459;SDS011;52058;49.822;6.754;2024-01-30T10:21:09;13.13;;;9.57;;
65459;SDS011;52058;49.822;6.754;2024-01-30T10:23:36;17.63;;;10.68;;
65459;SDS011;52058;49.822;6.754;2024-01-30T10:26:03;13.30;;;9.98;;
65459;SDS011;52058;49.822;6.754;2024-01-30T10:28:30;15.60;;;10.07;;
65459;SDS011;52058;49.822;6.754;2024-01-30T10:30:59;13.63;;;10.35;;
65459;SDS011;52058;49.822;6.754;2024-01-30T10:33:26;13.45;;;10.57;;
65459;SDS011;52058;49.822;6.754;2024-01-30T10:35:54;13.10;;;10.48;;
65459;SDS011;52058;49.822;6.754;2024-01-30T10:38:22;13.38;;;9.98;;
65459;SDS011;52058;49.822;6.754;2024-01-30T10:40:50;16.70;;;10.57;;
65459;SDS011;52058;49.822;6.754;2024-01-30T10:43:18;16.17;;;10.95;;
65459;SDS011;52058;49.822;6.754;2024-01-30T10:45:47;18.80;;;12.63;;
65459;SDS011;52058;49.822;6.754;2024-01-30T10:48:15;15.07;;;11.20;;
65459;SDS011;52058;49.822;6.754;2024-01-30T10:50:43;15.52;;;12.43;;
65459;SDS011;52058;49.822;6.754;2024-01-30T10:53:11;16.73;;;11.93;;
65459;SDS011;52058;49.822;6.754;2024-01-30T10:55:39;16.70;;;11.77;;
65459;SDS011;52058;49.822;6.754;2024-01-30T10:58:07;18.80;;;11.52;;
65459;SDS011;52058;49.822;6.754;2024-01-30T11:00:35;16.55;;;11.25;;
65459;SDS011;52058;49.822;6.754;2024-01-30T11:03:02;16.42;;;11.25;;
65459;SDS011;52058;49.822;6.754;2024-01-30T11:05:29;19.23;;;12.43;;
65459;SDS011;52058;49.822;6.754;2024-01-30T11:07:55;18.20;;;12.07;;
65459;SDS011;52058;49.822;6.754;2024-01-30T11:10:22;19.98;;;12.95;;
65459;SDS011;52058;49.822;6.754;2024-01-30T11:12:52;16.30;;;11.20;;
65459;SDS011;52058;49.822;6.754;2024-01-30T11:15:18;15.52;;;10.48;;
65459;SDS011;52058;49.822;6.754;2024-01-30T11:17:49;14.90;;;10.45;;
65459;SDS011;52058;49.822;6.754;2024-01-30T11:20:17;15.38;;;10.25;;
65459;SDS011;52058;49.822;6.754;2024-01-30T11:22:44;14.25;;;9.90;;
65459;SDS011;52058;49.822;6.754;2024-01-30T11:25:11;15.60;;;9.75;;
65459;SDS011;52058;49.822;6.754;2024-01-30T11:27:38;14.95;;;10.25;;
65459;SDS011;52058;49.822;6.754;2024-01-30T11:30:06;18.55;;;11.68;;
65459;SDS011;52058;49.822;6.754;2024-01-30T11:32:33;20.85;;;13.02;;
65459;SDS011;52058;49.822;6.754;2024-01-30T11:34:59;21.67;;;13.18;;
65459;SDS011;52058;49.822;6.754;2024-01-30T11:37:26;18.30;;;11.73;;
65459;SDS011;52058;49.822;6.754;2024-01-30T11:39:53;15.65;;;10.25;;
65459;SDS011;52058;49.822;6.754;2024-01-30T11:42:19;18.05;;;10.30;;
65459;SDS011;52058;49.822;6.754;2024-01-30T11:44:46;13.70;;;10.32;;
65459;SDS011;52058;49.822;6.754;2024-01-30T11:47:14;13.70;;;9.85;;
65459;SDS011;52058;49.822;6.754;2024-01-30T11:49:41;14.07;;;9.30;;
65459;SDS011;52058;49.822;6.754;2024-01-30T11:52:07;13.55;;;9.38;;
65459;SDS011;52058;49.822;6.754;2024-01-30T11:54:34;14.50;;;9.50;;
65459;SDS011;52058;49.822;6.754;2024-01-30T11:57:00;14.45;;;9.55;;
65459;SDS011;52058;49.822;6.754;2024-01-30T11:59:26;15.10;;;9.93;;
65459;SDS011;52058;49.822;6.754;2024-01-30T12:01:53;15.43;;;10.35;;
65459;SDS011;52058;49.822;6.754;2024-01-30T12:04:21;18.20;;;11.25;;
65459;SDS011;52058;49.822;6.754;2024-01-30T12:06:50;17.50;;;10.13;;
65459;SDS011;52058;49.822;6.754;2024-01-30T12:09:16;14.80;;;10.00;;
65459;SDS011;52058;49.822;6.754;2024-01-30T12:11:43;17.83;;;10.82;;
65459;SDS011;52058;49.822;6.754;2024-01-30T12:14:09;15.82;;;9.98;;
65459;SDS011;52058;49.822;6.754;2024-01-30T12:16:36;15.98;;;10.38;;
65459;SDS011;52058;49.822;6.754;2024-01-30T12:19:02;14.77;;;10.50;;
65459;SDS011;52058;49.822;6.754;2024-01-30T12:21:30;15.57;;;9.55;;
65459;SDS011;52058;49.822;6.754;2024-01-30T12:23:56;14.38;;;9.32;;
65459;SDS011;52058;49.822;6.754;2024-01-30T12:26:23;14.32;;;9.70;;
65459;SDS011;52058;49.822;6.754;2024-01-30T12:28:50;13.27;;;9.80;;
65459;SDS011;52058;49.822;6.754;2024-01-30T12:31:17;14.15;;;10.35;;
65459;SDS011;52058;49.822;6.754;2024-01-30T12:33:43;16.08;;;10.27;;
65459;SDS011;52058;49.822;6.754;2024-01-30T12:36:09;16.77;;;10.70;;
65459;SDS011;52058;49.822;6.754;2024-01-30T12:38:38;17.95;;;10.40;;
65459;SDS011;52058;49.822;6.754;2024-01-30T12:41:06;15.45;;;10.15;;
65459;SDS011;52058;49.822;6.754;2024-01-30T12:43:33;15.60;;;9.45;;
65459;SDS011;52058;49.822;6.754;2024-01-30T12:45:59;15.07;;;10.07;;
65459;SDS011;52058;49.822;6.754;2024-01-30T12:48:26;13.20;;;8.90;;
65459;SDS011;52058;49.822;6.754;2024-01-30T12:50:54;17.98;;;10.25;;
65459;SDS011;52058;49.822;6.754;2024-01-30T12:53:20;14.15;;;9.18;;
65459;SDS011;52058;49.822;6.754;2024-01-30T12:55:48;17.73;;;10.02;;
65459;SDS011;52058;49.822;6.754;2024-01-30T12:58:14;15.80;;;10.52;;
65459;SDS011;52058;49.822;6.754;2024-01-30T13:00:41;15.98;;;10.95;;
65459;SDS011;52058;49.822;6.754;2024-01-30T13:03:08;15.50;;;10.32;;
65459;SDS011;52058;49.822;6.754;2024-01-30T13:05:34;15.73;;;10.57;;
65459;SDS011;52058;49.822;6.754;2024-01-30T13:08:01;16.40;;;10.65;;
65459;SDS011;52058;49.822;6.754;2024-01-30T13:10:27;16.20;;;9.52;;
65459;SDS011;52058;49.822;6.754;2024-01-30T13:12:55;14.80;;;9.32;;
65459;SDS011;52058;49.822;6.754;2024-01-30T13:15:22;17.13;;;10.70;;
65459;SDS011;52058;49.822;6.754;2024-01-30T13:17:48;21.15;;;10.95;;
65459;SDS011;52058;49.822;6.754;2024-01-30T13:20:14;16.00;;;11.98;;
65459;SDS011;52058;49.822;6.754;2024-01-30T13:22:44;17.15;;;10.18;;
65459;SDS011;52058;49.822;6.754;2024-01-30T13:25:11;16.10;;;9.57;;
65459;SDS011;52058;49.822;6.754;2024-01-30T13:27:37;17.08;;;11.32;;
65459;SDS011;52058;49.822;6.754;2024-01-30T13:30:06;19.98;;;10.52;;
65459;SDS011;52058;49.822;6.754;2024-01-30T13:32:33;16.23;;;10.18;;
65459;SDS011;52058;49.822;6.754;2024-01-30T13:34:59;14.35;;;8.93;;
65459;SDS011;52058;49.822;6.754;2024-01-30T13:37:25;11.38;;;8.10;;
65459;SDS011;52058;49.822;6.754;2024-01-30T13:39:52;13.27;;;8.57;;
65459;SDS011;52058;49.822;6.754;2024-01-30T13:42:18;12.77;;;8.48;;
65459;SDS011;52058;49.822;6.754;2024-01-30T13:44:45;14.13;;;9.10;;
65459;SDS011;52058;49.822;6.754;2024-01-30T13:47:13;12.40;;;8.25;;
65459;SDS011;52058;49.822;6.754;2024-01-30T13:49:39;13.38;;;7.55;;
65459;SDS011;52058;49.822;6.754;2024-01-30T13:52:05;13.52;;;7.40;;
65459;SDS011;52058;49.822;6.754;2024-01-30T13:54:32;11.38;;;8.07;;
65459;SDS011;52058;49.822;6.754;2024-01-30T13:56:58;12.00;;;7.43;;
65459;SDS011;52058;49.822;6.754;2024-01-30T13:59:24;11.60;;;7.80;;
65459;SDS011;52058;49.822;6.754;2024-01-30T14:01:51;11.57;;;7.43;;
65459;SDS011;52058;49.822;6.754;2024-01-30T14:04:19;12.20;;;8.18;;
65459;SDS011;52058;49.822;6.754;2024-01-30T14:06:45;13.93;;;8.23;;
65459;SDS011;52058;49.822;6.754;2024-01-30T14:09:11;14.70;;;8.07;;
65459;SDS011;52058;49.822;6.754;2024-01-30T14:11:40;10.90;;;7.70;;
65459;SDS011;52058;49.822;6.754;2024-01-30T14:14:06;12.63;;;9.38;;
65459;SDS011;52058;49.822;6.754;2024-01-30T14:16:33;13.45;;;9.55;;
65459;SDS011;52058;49.822;6.754;2024-01-30T14:18:59;13.23;;;8.82;;
65459;SDS011;52058;49.822;6.754;2024-01-30T14:21:27;10.95;;;6.35;;
65459;SDS011;52058;49.822;6.754;2024-01-30T14:23:53;10.77;;;6.25;;
65459;SDS011;52058;49.822;6.754;2024-01-30T14:26:20;9.88;;;6.70;;
65459;SDS011;52058;49.822;6.754;2024-01-30T14:28:46;13.43;;;7.10;;